Time;durP1;ratioP1;P1;durP2;ratioP2;P2;SDS_P1;SDS_P2;PMS_P1;PMS_P2;Temp;Humidity;BMP_temperature;BMP_pressure;BME280_temperature;BME280_humidity;BME280_pressure;Samples;Min_cycle;Max_cycle;Signal;HPM_P1;HPM_P2
2021/12/09 00:01:22;;;;;;;52.13;16.73;;;5.40;99.90;;;;;;5054581;28;20067;-52
2021/12/09 00:03:51;;;;;;;50.40;17.10;;;5.30;99.90;;;;;;5053466;28;20049;-49
2021/12/09 00:06:21;;;;;;;51.80;16.63;;;5.30;99.90;;;;;;5052921;28;20071;-52
2021/12/09 00:08:47;;;;;;;45.78;14.90;;;5.20;99.90;;;;;;5054234;28;20071;-49
2021/12/09 00:11:13;;;;;;;43.80;13.82;;;5.20;99.90;;;;;;5052759;28;20025;-50
2021/12/09 00:13:39;;;;;;;44.03;13.40;;;5.20;99.90;;;;;;5052031;28;20120;-50
2021/12/09 00:16:05;;;;;;;36.65;12.52;;;5.20;99.90;;;;;;5052952;28;20115;-49
2021/12/09 00:18:31;;;;;;;38.30;12.68;;;5.20;99.90;;;;;;5053555;28;20027;-51
2021/12/09 00:20:57;;;;;;;46.03;14.32;;;5.20;99.90;;;;;;5053949;28;20021;-51
2021/12/09 00:23:23;;;;;;;37.15;12.55;;;5.10;99.90;;;;;;5052460;28;20021;-51
2021/12/09 00:25:49;;;;;;;38.67;13.80;;;5.00;99.90;;;;;;5052542;28;20040;-49
2021/12/09 00:28:14;;;;;;;46.78;12.43;;;4.90;99.90;;;;;;5054077;28;20040;-51
2021/12/09 00:30:40;;;;;;;32.00;11.30;;;4.90;99.90;;;;;;5052489;28;20060;-49
2021/12/09 00:33:06;;;;;;;37.70;13.98;;;4.90;99.90;;;;;;5052399;28;20116;-49
2021/12/09 00:35:44;;;;;;;39.20;12.85;;;5.00;99.90;;;;;;5053827;28;20025;-49
2021/12/09 00:38:13;;;;;;;39.63;14.82;;;5.00;99.90;;;;;;5054288;28;20095;-50
2021/12/09 00:40:39;;;;;;;41.25;13.30;;;5.10;99.90;;;;;;5052332;28;20021;-49
2021/12/09 00:43:05;;;;;;;41.17;14.07;;;5.10;99.90;;;;;;5052182;28;20036;-49
2021/12/09 00:45:31;;;;;;;44.90;12.93;;;5.20;99.90;;;;;;5052188;28;20023;-52
2021/12/09 00:47:59;;;;;;;50.63;13.25;;;5.20;99.90;;;;;;5052503;28;20028;-49
2021/12/09 00:50:24;;;;;;;40.33;13.05;;;5.30;99.90;;;;;;5051967;28;20056;-49
2021/12/09 00:52:50;;;;;;;52.15;13.80;;;5.30;99.90;;;;;;5052045;28;20025;-51
2021/12/09 00:55:16;;;;;;;43.35;13.77;;;5.20;99.90;;;;;;5052504;28;20025;-50
2021/12/09 00:57:43;;;;;;;40.50;14.35;;;5.10;99.90;;;;;;5052109;28;20029;-49
2021/12/09 01:00:13;;;;;;;50.15;15.02;;;5.10;99.90;;;;;;5052028;28;20044;-50
2021/12/09 01:02:38;;;;;;;42.60;13.80;;;4.90;99.90;;;;;;5052275;28;20028;-49
2021/12/09 01:05:07;;;;;;;42.25;14.13;;;4.90;99.90;;;;;;5053252;28;20021;-49
2021/12/09 01:07:33;;;;;;;37.88;13.88;;;4.90;99.90;;;;;;5053204;28;20071;-50
2021/12/09 01:09:59;;;;;;;41.83;13.38;;;5.00;99.90;;;;;;5053880;28;20029;-50
2021/12/09 01:12:25;;;;;;;40.90;13.45;;;4.90;99.90;;;;;;5051945;28;20025;-55
2021/12/09 01:14:51;;;;;;;42.38;12.57;;;5.00;99.90;;;;;;5053024;28;20092;-50
2021/12/09 01:17:17;;;;;;;45.17;13.55;;;5.00;99.90;;;;;;5051841;28;20024;-51
2021/12/09 01:19:42;;;;;;;45.20;14.02;;;5.10;99.90;;;;;;5053084;28;20017;-51
2021/12/09 01:22:08;;;;;;;37.60;13.82;;;5.10;99.90;;;;;;5052147;28;20056;-55
2021/12/09 01:24:34;;;;;;;35.60;12.77;;;5.10;99.90;;;;;;5054044;28;20024;-50
2021/12/09 01:27:00;;;;;;;34.47;13.02;;;5.20;99.90;;;;;;5057131;28;20025;-49
2021/12/09 01:29:39;;;;;;;35.85;12.93;;;5.10;99.90;;;;;;5055841;28;20032;-52
2021/12/09 01:32:08;;;;;;;35.63;12.07;;;5.10;99.90;;;;;;5056973;28;20033;-49
2021/12/09 01:34:36;;;;;;;36.42;10.75;;;5.10;99.90;;;;;;5057009;28;20021;-49
2021/12/09 01:37:03;;;;;;;36.00;12.25;;;5.10;99.90;;;;;;5056061;28;20116;-51
2021/12/09 01:39:30;;;;;;;30.42;11.48;;;5.20;99.90;;;;;;5056993;28;20025;-50
2021/12/09 01:41:58;;;;;;;31.60;12.15;;;5.20;99.90;;;;;;5056837;28;20028;-50
2021/12/09 01:44:24;;;;;;;37.25;12.75;;;5.10;99.90;;;;;;5055562;28;20052;-54
2021/12/09 01:46:50;;;;;;;30.85;13.55;;;4.90;99.90;;;;;;5056398;28;20113;-52
2021/12/09 01:49:16;;;;;;;25.88;11.73;;;4.90;99.90;;;;;;5055552;28;20067;-51
2021/12/09 01:51:45;;;;;;;30.92;11.73;;;4.70;99.90;;;;;;5055759;28;20021;-54
2021/12/09 01:54:11;;;;;;;28.83;11.45;;;4.70;99.90;;;;;;5055447;28;20033;-52
2021/12/09 01:56:37;;;;;;;28.20;11.68;;;4.90;99.90;;;;;;5056556;28;20029;-54
2021/12/09 01:59:05;;;;;;;25.00;10.50;;;5.00;99.90;;;;;;5056638;28;20444;-50
2021/12/09 02:01:33;;;;;;;27.08;11.13;;;5.00;99.90;;;;;;5056569;28;20079;-49
2021/12/09 02:04:00;;;;;;;28.95;11.43;;;5.00;99.90;;;;;;5055206;28;20120;-54
2021/12/09 02:06:27;;;;;;;24.80;10.85;;;5.10;99.90;;;;;;5055211;28;20032;-53
2021/12/09 02:08:53;;;;;;;24.95;10.65;;;5.10;99.90;;;;;;5056559;28;20021;-53
2021/12/09 02:11:20;;;;;;;25.73;11.55;;;5.10;99.90;;;;;;5056384;28;20112;-50
2021/12/09 02:13:57;;;;;;;26.95;11.02;;;5.20;99.90;;;;;;5055115;28;20024;-50
2021/12/09 02:16:23;;;;;;;24.23;9.85;;;5.10;99.90;;;;;;5056534;28;20108;-50
2021/12/09 02:18:49;;;;;;;25.80;10.85;;;5.20;99.90;;;;;;5055793;28;20068;-49
2021/12/09 02:21:20;;;;;;;25.85;11.25;;;5.20;99.90;;;;;;5055514;28;20021;-51
2021/12/09 02:23:51;;;;;;;25.45;10.95;;;5.20;99.90;;;;;;5056189;28;20025;-52
2021/12/09 02:26:20;;;;;;;29.60;11.52;;;5.20;99.90;;;;;;5056254;28;20029;-49
2021/12/09 02:28:48;;;;;;;31.33;11.93;;;5.20;99.90;;;;;;5054891;28;20021;-51
2021/12/09 02:31:14;;;;;;;28.05;11.38;;;5.10;99.90;;;;;;5056040;28;20099;-49
2021/12/09 02:33:39;;;;;;;26.67;11.20;;;5.00;99.90;;;;;;5054958;28;20029;-49
2021/12/09 02:36:05;;;;;;;22.45;10.48;;;4.90;99.90;;;;;;5053537;28;20029;-48
2021/12/09 02:38:31;;;;;;;27.70;11.93;;;5.10;99.90;;;;;;5056164;28;20074;-49
2021/12/09 02:40:59;;;;;;;25.13;11.02;;;5.00;99.90;;;;;;5055856;28;20013;-49
2021/12/09 02:43:29;;;;;;;28.73;12.48;;;5.00;99.90;;;;;;5055738;28;20033;-48
2021/12/09 02:45:56;;;;;;;26.75;11.52;;;5.00;99.90;;;;;;5054880;28;20054;-49
2021/12/09 02:48:23;;;;;;;30.25;11.23;;;5.00;99.90;;;;;;5055703;28;20100;-52
2021/12/09 02:50:50;;;;;;;23.27;9.85;;;5.00;99.90;;;;;;5055604;28;20025;-48
2021/12/09 02:53:18;;;;;;;28.77;11.88;;;5.00;99.90;;;;;;5054249;28;20082;-50
2021/12/09 02:55:44;;;;;;;29.92;11.27;;;5.10;99.90;;;;;;5054303;28;20124;-50
2021/12/09 02:58:11;;;;;;;29.08;12.68;;;5.10;99.90;;;;;;5055792;28;20066;-50
2021/12/09 03:01:12;;;;;;;24.85;11.13;;;5.20;99.90;;;;;;5055508;28;20017;-49
2021/12/09 03:03:49;;;;;;;26.83;11.13;;;5.20;99.90;;;;;;5054173;28;20028;-49
2021/12/09 03:06:16;;;;;;;24.13;10.88;;;5.20;99.90;;;;;;5054211;28;20036;-50
2021/12/09 03:08:43;;;;;;;27.65;11.15;;;5.20;99.90;;;;;;5054102;28;20096;-49
2021/12/09 03:11:12;;;;;;;25.38;11.02;;;5.20;99.90;;;;;;5054064;28;20086;-48
2021/12/09 03:13:39;;;;;;;22.00;10.80;;;5.20;99.90;;;;;;5055212;28;20035;-50
2021/12/09 03:16:05;;;;;;;26.52;11.43;;;5.10;99.90;;;;;;5055093;28;20032;-51
2021/12/09 03:18:39;;;;;;;30.98;12.77;;;5.00;99.90;;;;;;5055429;28;20027;-51
2021/12/09 03:21:13;;;;;;;36.25;12.70;;;5.00;99.90;;;;;;5054139;28;20021;-48
2021/12/09 03:23:38;;;;;;;26.10;11.15;;;5.00;99.90;;;;;;5055321;28;20060;-49
2021/12/09 03:26:04;;;;;;;25.33;11.73;;;4.90;99.90;;;;;;5053763;28;20028;-52
2021/12/09 03:28:29;;;;;;;28.40;12.13;;;5.00;99.90;;;;;;5054960;28;20066;-49
2021/12/09 03:30:56;;;;;;;29.38;12.25;;;5.00;99.90;;;;;;5055495;28;20059;-50
2021/12/09 03:33:22;;;;;;;19.60;9.43;;;5.00;99.90;;;;;;5054821;28;20032;-50
2021/12/09 03:35:57;;;;;;;25.73;10.77;;;5.20;99.90;;;;;;5055024;28;20024;-49
2021/12/09 03:38:23;;;;;;;27.05;10.32;;;5.10;99.90;;;;;;5053592;28;20024;-52
2021/12/09 03:40:48;;;;;;;29.25;10.23;;;5.10;99.90;;;;;;5054716;28;20033;-50
2021/12/09 03:43:14;;;;;;;25.02;10.63;;;5.10;99.90;;;;;;5053272;28;20032;-52
2021/12/09 03:45:40;;;;;;;21.60;9.45;;;5.20;99.90;;;;;;5053322;28;20017;-51
2021/12/09 03:48:05;;;;;;;25.98;11.23;;;5.20;99.90;;;;;;5053101;28;20025;-53
2021/12/09 03:50:31;;;;;;;24.40;10.85;;;5.00;99.90;;;;;;5053336;28;20116;-53
2021/12/09 03:52:56;;;;;;;26.35;11.45;;;4.90;99.90;;;;;;5054383;28;20025;-55
2021/12/09 03:55:22;;;;;;;23.27;9.63;;;5.00;99.90;;;;;;5053606;28;20114;-50
2021/12/09 03:57:48;;;;;;;26.05;10.98;;;5.10;99.90;;;;;;5053343;28;20021;-49
2021/12/09 04:00:14;;;;;;;26.45;10.48;;;5.10;99.90;;;;;;5053398;28;20017;-50
2021/12/09 04:02:40;;;;;;;20.02;9.75;;;5.00;99.90;;;;;;5054597;28;20028;-49
2021/12/09 04:05:08;;;;;;;25.75;10.88;;;5.10;99.90;;;;;;5054283;28;20021;-54
2021/12/09 04:07:34;;;;;;;23.13;9.63;;;5.20;99.90;;;;;;5052986;28;20029;-51
2021/12/09 04:09:59;;;;;;;27.85;10.02;;;5.20;99.90;;;;;;5053298;28;20079;-51
2021/12/09 04:12:25;;;;;;;22.15;10.63;;;5.10;99.90;;;;;;5054052;28;20051;-51
2021/12/09 04:14:52;;;;;;;29.58;11.55;;;5.10;99.90;;;;;;5053114;28;20051;-50
2021/12/09 04:17:18;;;;;;;24.60;10.80;;;5.10;99.90;;;;;;5053953;28;20021;-52
2021/12/09 04:19:47;;;;;;;22.67;9.60;;;5.10;99.90;;;;;;5052724;28;20500;-54
2021/12/09 04:22:15;;;;;;;22.02;9.65;;;5.10;99.90;;;;;;5053970;28;20498;-53
2021/12/09 04:24:41;;;;;;;22.25;9.73;;;5.20;99.90;;;;;;5052583;28;20021;-55
2021/12/09 04:27:06;;;;;;;22.38;9.02;;;5.30;99.90;;;;;;5053756;28;20025;-52
2021/12/09 04:29:32;;;;;;;23.88;9.57;;;5.30;99.90;;;;;;5052581;28;20028;-52
2021/12/09 04:31:58;;;;;;;17.42;9.00;;;5.20;99.90;;;;;;5052769;28;20112;-55
2021/12/09 04:34:23;;;;;;;21.98;10.07;;;5.20;99.90;;;;;;5054008;28;20035;-50
2021/12/09 04:36:49;;;;;;;23.45;9.55;;;5.30;99.90;;;;;;5052632;28;20025;-50
2021/12/09 04:39:15;;;;;;;24.92;8.63;;;5.30;99.90;;;;;;5053655;28;20021;-55
2021/12/09 04:41:41;;;;;;;20.73;8.70;;;5.30;99.90;;;;;;5053678;28;20410;-52
2021/12/09 04:44:08;;;;;;;25.33;9.88;;;5.20;99.90;;;;;;5053800;28;20023;-54
2021/12/09 04:46:35;;;;;;;19.85;8.88;;;5.20;99.90;;;;;;5053589;28;20100;-52
2021/12/09 04:49:02;;;;;;;19.92;9.68;;;5.20;99.90;;;;;;5053776;28;20112;-55
2021/12/09 04:51:28;;;;;;;17.80;9.13;;;5.20;99.90;;;;;;5053776;28;20067;-49
2021/12/09 04:53:54;;;;;;;23.88;10.00;;;5.30;99.90;;;;;;5053453;28;20065;-49
2021/12/09 04:56:20;;;;;;;28.92;10.00;;;5.30;99.90;;;;;;5052132;28;20035;-51
2021/12/09 04:58:45;;;;;;;18.65;9.43;;;5.30;99.90;;;;;;5053107;28;20096;-48
2021/12/09 05:01:11;;;;;;;19.60;9.07;;;5.30;99.90;;;;;;5052155;28;20017;-48
2021/12/09 05:03:37;;;;;;;20.40;9.60;;;5.30;99.90;;;;;;5051948;28;20021;-51
2021/12/09 05:06:03;;;;;;;22.75;10.38;;;5.40;99.90;;;;;;5052834;28;20028;-48
2021/12/09 05:08:33;;;;;;;22.23;9.05;;;5.40;99.90;;;;;;5053271;28;20047;-49
2021/12/09 05:11:08;;;;;;;17.80;9.48;;;5.20;99.90;;;;;;5052930;28;20047;-48
2021/12/09 05:13:38;;;;;;;21.92;9.68;;;5.20;99.90;;;;;;5053206;28;20033;-48
2021/12/09 05:16:06;;;;;;;27.67;11.23;;;5.20;99.90;;;;;;5053076;28;20028;-50
2021/12/09 05:18:35;;;;;;;25.73;11.88;;;5.10;99.90;;;;;;5051968;28;20036;-50
2021/12/09 05:21:02;;;;;;;24.40;10.88;;;5.00;99.90;;;;;;5053062;28;20029;-50
2021/12/09 05:23:28;;;;;;;30.33;11.13;;;5.00;99.90;;;;;;5053204;28;20029;-48
2021/12/09 05:25:54;;;;;;;21.92;9.38;;;5.10;99.90;;;;;;5053153;28;20025;-50
2021/12/09 05:28:29;;;;;;;19.92;10.07;;;5.10;99.90;;;;;;5052124;28;20036;-50
2021/12/09 05:33:39;;;;;;;29.23;10.15;;;5.20;99.90;;;;;;5053227;28;20083;-51
2021/12/09 05:36:04;;;;;;;20.70;8.60;;;5.20;99.90;;;;;;5053031;28;20017;-49
2021/12/09 05:38:30;;;;;;;20.05;9.05;;;5.20;99.90;;;;;;5052959;28;20052;-48
2021/12/09 05:40:56;;;;;;;17.65;8.52;;;5.30;99.90;;;;;;5051729;28;20021;-48
2021/12/09 05:43:22;;;;;;;18.95;8.48;;;5.30;99.90;;;;;;5052843;28;20025;-48
2021/12/09 05:45:49;;;;;;;14.43;6.85;;;5.20;99.90;;;;;;5051761;28;20108;-48
2021/12/09 05:48:15;;;;;;;19.75;7.70;;;5.20;99.90;;;;;;5052875;28;20025;-51
2021/12/09 05:50:41;;;;;;;39.67;13.25;;;5.20;99.90;;;;;;5052192;28;20111;-50
2021/12/09 05:53:07;;;;;;;32.17;12.80;;;5.10;99.90;;;;;;5052758;28;20029;-48
2021/12/09 05:55:34;;;;;;;23.67;9.23;;;5.00;99.90;;;;;;5051888;28;20037;-48
2021/12/09 05:58:00;;;;;;;21.52;8.18;;;4.90;99.90;;;;;;5052735;28;20115;-48
2021/12/09 06:00:26;;;;;;;34.35;11.20;;;4.80;99.90;;;;;;5052761;28;20082;-49
2021/12/09 06:02:52;;;;;;;27.80;11.35;;;4.80;99.90;;;;;;5051459;28;20186;-49
2021/12/09 06:05:18;;;;;;;25.55;11.05;;;4.80;99.90;;;;;;5051725;28;20102;-51
2021/12/09 06:07:45;;;;;;;27.83;10.45;;;4.70;99.90;;;;;;5051401;28;20028;-50
2021/12/09 06:10:11;;;;;;;26.27;11.20;;;4.80;99.90;;;;;;5052953;28;20025;-49
2021/12/09 06:12:37;;;;;;;22.40;10.57;;;4.70;99.90;;;;;;5056401;28;20033;-50
2021/12/09 06:15:04;;;;;;;27.13;12.43;;;4.60;99.90;;;;;;5055035;28;20031;-54
2021/12/09 06:17:30;;;;;;;29.45;12.25;;;4.50;99.90;;;;;;5054842;28;20047;-49
2021/12/09 06:19:56;;;;;;;24.27;11.38;;;4.30;99.90;;;;;;5056256;28;20527;-50
2021/12/09 06:22:22;;;;;;;29.50;10.70;;;4.30;99.90;;;;;;5054978;28;20021;-51
2021/12/09 06:24:47;;;;;;;27.42;10.52;;;4.30;99.90;;;;;;5055149;28;20056;-49
2021/12/09 06:27:13;;;;;;;23.20;9.50;;;4.30;99.90;;;;;;5054880;28;20025;-50
2021/12/09 06:29:39;;;;;;;21.67;7.30;;;4.30;99.90;;;;;;5055222;28;20060;-50
2021/12/09 06:32:05;;;;;;;19.45;8.02;;;4.20;99.90;;;;;;5054794;28;20079;-53
2021/12/09 06:34:31;;;;;;;18.10;7.72;;;4.10;99.90;;;;;;5054685;28;20025;-48
2021/12/09 06:36:57;;;;;;;15.52;8.18;;;4.10;99.90;;;;;;5055577;28;20086;-53
2021/12/09 06:39:23;;;;;;;17.63;7.65;;;4.10;99.90;;;;;;5055954;28;20021;-49
2021/12/09 06:41:48;;;;;;;19.60;7.72;;;4.00;99.90;;;;;;5055846;28;20020;-52
2021/12/09 06:44:14;;;;;;;16.52;7.28;;;3.90;99.90;;;;;;5055751;28;20021;-51
2021/12/09 06:46:40;;;;;;;15.93;7.22;;;3.90;99.90;;;;;;5054486;28;20057;-50
2021/12/09 06:49:06;;;;;;;14.77;6.30;;;3.80;99.90;;;;;;5055665;28;20021;-52
2021/12/09 06:51:32;;;;;;;14.10;6.28;;;3.80;99.90;;;;;;5054448;28;20021;-53
2021/12/09 06:53:57;;;;;;;18.23;6.95;;;3.80;99.90;;;;;;5054158;28;20119;-53
2021/12/09 06:56:25;;;;;;;15.18;6.47;;;3.70;99.90;;;;;;5054265;28;20112;-52
2021/12/09 06:58:50;;;;;;;24.83;6.95;;;3.60;99.90;;;;;;5054240;28;20048;-52
2021/12/09 07:01:16;;;;;;;20.42;6.53;;;3.60;99.90;;;;;;5055730;28;20060;-54
2021/12/09 07:03:42;;;;;;;16.45;6.72;;;3.60;99.90;;;;;;5055685;28;20013;-55
2021/12/09 07:06:11;;;;;;;17.27;7.22;;;3.60;99.90;;;;;;5055416;28;20028;-54
2021/12/09 07:08:45;;;;;;;23.83;8.80;;;3.50;99.90;;;;;;5055677;28;20025;-55
2021/12/09 07:11:12;;;;;;;18.10;7.68;;;3.50;99.90;;;;;;5056240;28;20025;-55
2021/12/09 07:13:37;;;;;;;17.55;8.20;;;3.50;99.90;;;;;;5054194;28;20027;-55
2021/12/09 07:16:03;;;;;;;24.00;9.02;;;3.40;99.90;;;;;;5055700;28;20025;-52
2021/12/09 07:18:30;;;;;;;26.05;10.20;;;3.30;99.90;;;;;;5055213;28;20028;-54
2021/12/09 07:20:56;;;;;;;33.13;11.95;;;3.20;99.90;;;;;;5054014;28;20029;-52
2021/12/09 07:23:22;;;;;;;25.67;9.18;;;3.20;99.90;;;;;;5054986;28;20487;-56
2021/12/09 07:25:48;;;;;;;19.88;9.25;;;3.30;99.90;;;;;;5054209;28;20017;-52
2021/12/09 07:28:14;;;;;;;23.38;9.88;;;3.30;99.90;;;;;;5054546;28;20017;-55
2021/12/09 07:30:40;;;;;;;24.60;9.93;;;3.30;99.90;;;;;;5054971;28;20031;-49
2021/12/09 07:33:06;;;;;;;27.67;9.40;;;3.30;99.90;;;;;;5054982;28;20017;-50
2021/12/09 07:35:32;;;;;;;25.75;10.73;;;3.40;99.90;;;;;;5055287;28;20086;-52
2021/12/09 07:37:58;;;;;;;25.33;9.73;;;3.40;99.90;;;;;;5054765;28;20510;-55
2021/12/09 07:40:24;;;;;;;22.35;9.43;;;3.40;99.90;;;;;;5053537;28;20091;-51
2021/12/09 07:42:50;;;;;;;19.35;9.10;;;3.50;99.90;;;;;;5053350;28;20029;-49
2021/12/09 07:45:17;;;;;;;19.08;8.88;;;3.50;99.90;;;;;;5051770;28;20422;-55
2021/12/09 07:47:44;;;;;;;17.73;9.05;;;3.60;99.90;;;;;;5051732;28;20025;-50
2021/12/09 07:50:13;;;;;;;51.70;11.00;;;3.60;99.90;;;;;;5053083;28;20028;-52
2021/12/09 07:52:43;;;;;;;47.90;10.75;;;3.60;99.90;;;;;;5052195;28;20098;-49
2021/12/09 07:55:11;;;;;;;35.47;9.32;;;3.60;99.90;;;;;;5052451;28;20091;-49
2021/12/09 07:57:38;;;;;;;54.30;12.02;;;3.40;99.90;;;;;;5053099;28;20060;-51
2021/12/09 08:00:12;;;;;;;36.78;10.43;;;3.30;99.90;;;;;;5054414;28;20052;-48
2021/12/09 08:02:41;;;;;;;17.85;7.93;;;3.30;99.90;;;;;;5053078;28;20021;-47
2021/12/09 08:05:08;;;;;;;41.50;10.77;;;3.30;99.90;;;;;;5053020;28;20020;-48
2021/12/09 08:07:34;;;;;;;39.50;9.82;;;3.40;99.90;;;;;;5053008;28;20029;-48
2021/12/09 08:10:00;;;;;;;22.25;8.38;;;3.40;99.90;;;;;;5054505;28;20368;-47
2021/12/09 08:12:26;;;;;;;19.05;8.35;;;3.30;99.90;;;;;;5052823;28;20025;-47
2021/12/09 08:14:52;;;;;;;68.32;12.88;;;3.40;99.90;;;;;;5054351;28;20027;-48
2021/12/09 08:20:05;;;;;;;34.88;11.75;;;3.50;99.90;;;;;;5054052;28;20017;-49
2021/12/09 08:22:32;;;;;;;44.72;11.50;;;3.30;99.90;;;;;;5052602;28;20028;-50
2021/12/09 08:24:58;;;;;;;36.38;9.63;;;3.40;99.90;;;;;;5052727;28;20021;-49
2021/12/09 08:27:24;;;;;;;28.13;10.63;;;3.40;99.90;;;;;;5052625;28;20028;-48
2021/12/09 08:29:50;;;;;;;24.38;10.85;;;3.60;99.90;;;;;;5052594;28;20033;-48
2021/12/09 08:32:16;;;;;;;22.83;10.02;;;3.80;99.90;;;;;;5052912;28;20027;-48
2021/12/09 08:34:42;;;;;;;52.33;12.55;;;4.10;99.90;;;;;;5051588;28;20021;-48
2021/12/09 08:37:08;;;;;;;19.02;9.43;;;4.10;99.90;;;;;;5053904;28;20029;-48
2021/12/09 08:39:33;;;;;;;28.55;9.50;;;4.40;99.90;;;;;;5053631;28;20029;-49
2021/12/09 08:41:59;;;;;;;25.30;10.77;;;4.50;99.90;;;;;;5052424;28;20029;-51
2021/12/09 08:44:25;;;;;;;25.90;9.93;;;4.50;99.90;;;;;;5053845;28;20057;-47
2021/12/09 08:46:51;;;;;;;20.58;9.25;;;4.50;99.90;;;;;;5053718;28;20044;-49
2021/12/09 08:49:16;;;;;;;37.33;10.63;;;4.70;99.90;;;;;;5053845;28;20063;-47
2021/12/09 08:51:42;;;;;;;28.58;8.25;;;4.70;99.90;;;;;;5053706;28;20021;-49
2021/12/09 08:54:08;;;;;;;81.85;11.88;;;4.60;99.90;;;;;;5052060;28;20124;-49
2021/12/09 08:56:36;;;;;;;23.17;9.15;;;4.30;99.90;;;;;;5053331;28;20095;-50
2021/12/09 08:59:03;;;;;;;29.25;9.38;;;4.20;99.90;;;;;;5053382;28;20032;-51
2021/12/09 09:01:29;;;;;;;33.63;11.15;;;4.10;99.90;;;;;;5053590;28;20468;-51
2021/12/09 09:03:55;;;;;;;24.27;10.50;;;4.20;99.90;;;;;;5052462;28;20021;-48
2021/12/09 09:06:20;;;;;;;22.77;9.75;;;4.40;99.90;;;;;;5052094;28;20031;-46
2021/12/09 09:08:50;;;;;;;16.77;9.23;;;4.40;99.90;;;;;;5053241;28;20033;-46
2021/12/09 09:11:15;;;;;;;21.27;8.85;;;4.50;99.90;;;;;;5053055;28;20075;-47
2021/12/09 09:13:41;;;;;;;12.10;5.93;;;4.80;99.90;;;;;;5052823;28;20029;-47
2021/12/09 09:16:07;;;;;;;18.92;8.82;;;4.90;99.90;;;;;;5053298;28;20036;-51
2021/12/09 09:18:33;;;;;;;14.98;8.13;;;5.30;99.90;;;;;;5051905;28;20021;-48
2021/12/09 09:20:59;;;;;;;19.30;8.50;;;5.60;99.90;;;;;;5053120;28;20067;-48
2021/12/09 09:23:25;;;;;;;24.08;10.07;;;5.80;99.90;;;;;;5051890;28;20021;-53
2021/12/09 09:25:51;;;;;;;25.95;10.95;;;5.90;99.90;;;;;;5052706;28;20032;-48
2021/12/09 09:28:18;;;;;;;12.48;5.35;;;5.90;99.90;;;;;;5051835;28;20115;-51
2021/12/09 09:30:56;;;;;;;16.33;6.25;;;6.00;99.90;;;;;;5051749;28;20075;-50
2021/12/09 09:33:24;;;;;;;16.83;5.90;;;5.90;99.90;;;;;;5052054;28;20021;-49
2021/12/09 09:35:51;;;;;;;14.35;5.00;;;6.00;99.90;;;;;;5052497;28;20033;-49
2021/12/09 09:38:18;;;;;;;13.27;5.43;;;6.00;99.90;;;;;;5052923;28;20040;-51
2021/12/09 09:40:52;;;;;;;10.32;5.00;;;6.00;99.90;;;;;;5052535;28;20029;-49
2021/12/09 09:46:05;;;;;;;11.70;5.18;;;6.20;99.90;;;;;;5056672;28;20120;-49
2021/12/09 09:48:32;;;;;;;15.60;7.00;;;6.20;99.90;;;;;;5055878;28;20433;-50
2021/12/09 09:51:03;;;;;;;14.75;5.47;;;6.10;99.90;;;;;;5056479;28;20029;-49
2021/12/09 09:53:29;;;;;;;8.93;5.03;;;6.10;99.90;;;;;;5056817;28;20025;-47
2021/12/09 09:55:55;;;;;;;11.00;5.07;;;6.20;99.90;;;;;;5055558;28;20039;-49
2021/12/09 09:58:21;;;;;;;14.15;5.38;;;6.10;99.90;;;;;;5055581;28;20025;-48
2021/12/09 10:00:48;;;;;;;12.70;5.00;;;6.10;99.90;;;;;;5055472;28;20025;-47
2021/12/09 10:03:17;;;;;;;14.15;4.50;;;6.10;99.90;;;;;;5055293;28;20025;-50
2021/12/09 10:05:49;;;;;;;10.98;4.40;;;6.00;99.90;;;;;;5056485;28;20121;-49
2021/12/09 10:08:17;;;;;;;11.40;4.72;;;6.00;99.90;;;;;;5055146;28;20032;-45
2021/12/09 10:10:46;;;;;;;11.10;4.53;;;6.20;99.90;;;;;;5056655;28;20021;-51
2021/12/09 10:13:15;;;;;;;9.15;4.75;;;6.10;99.90;;;;;;5055168;28;20045;-54
2021/12/09 10:15:47;;;;;;;9.40;4.70;;;5.90;99.90;;;;;;5056565;28;20092;-50
2021/12/09 10:18:30;;;;;;;8.98;4.68;;;6.00;99.90;;;;;;5056693;28;20032;-49
2021/12/09 10:20:55;;;;;;;13.73;6.55;;;6.00;99.90;;;;;;5056261;28;20028;-48
2021/12/09 10:23:27;;;;;;;7.68;4.65;;;6.00;99.90;;;;;;5056160;28;20021;-52
2021/12/09 10:26:13;;;;;;;14.52;4.90;;;6.10;99.90;;;;;;5056080;28;20105;-47
2021/12/09 10:28:41;;;;;;;15.90;7.70;;;6.10;99.90;;;;;;5056429;28;20025;-48
2021/12/09 10:31:15;;;;;;;15.35;6.32;;;6.00;99.90;;;;;;5055179;28;20021;-50
2021/12/09 10:34:13;;;;;;;17.35;6.72;;;6.10;99.90;;;;;;5056089;28;20028;-48
2021/12/09 10:36:48;;;;;;;14.65;6.40;;;6.20;99.90;;;;;;5054739;28;20021;-50
2021/12/09 10:39:21;;;;;;;16.48;7.78;;;6.10;99.90;;;;;;5054643;28;20021;-47
2021/12/09 10:41:47;;;;;;;13.68;6.45;;;6.10;99.90;;;;;;5055953;28;20024;-49
2021/12/09 10:44:14;;;;;;;17.27;7.18;;;6.00;99.90;;;;;;5054844;28;20083;-48
2021/12/09 10:46:56;;;;;;;11.98;5.25;;;5.90;99.90;;;;;;5054544;28;20043;-46
2021/12/09 10:49:23;;;;;;;12.93;6.28;;;6.00;99.90;;;;;;5054989;28;20075;-49
2021/12/09 10:51:57;;;;;;;11.73;5.45;;;6.10;99.90;;;;;;5055252;28;20025;-51
2021/12/09 10:54:34;;;;;;;13.13;5.65;;;6.20;99.90;;;;;;5055555;28;20032;-48
2021/12/09 10:57:26;;;;;;;18.30;7.15;;;6.10;99.90;;;;;;5053920;28;20135;-48
2021/12/09 10:59:52;;;;;;;9.75;5.50;;;6.00;99.90;;;;;;5055576;28;20029;-52
2021/12/09 11:02:18;;;;;;;18.50;6.80;;;6.10;99.90;;;;;;5054447;28;20079;-51
2021/12/09 11:05:05;;;;;;;12.85;5.45;;;6.20;99.90;;;;;;5054394;28;20024;-49
2021/12/09 11:07:31;;;;;;;9.40;3.88;;;6.20;99.90;;;;;;5055257;28;20021;-48
2021/12/09 11:10:22;;;;;;;12.98;5.00;;;6.40;99.90;;;;;;5054072;28;20025;-49
2021/12/09 11:12:49;;;;;;;14.77;4.38;;;6.40;99.90;;;;;;5055297;28;20025;-48
2021/12/09 11:15:16;;;;;;;9.77;4.70;;;6.50;99.90;;;;;;5053974;28;20052;-50
2021/12/09 11:17:42;;;;;;;14.07;5.30;;;6.50;99.90;;;;;;5055134;28;20055;-47
2021/12/09 11:20:08;;;;;;;12.75;4.75;;;6.60;99.90;;;;;;5055209;28;20035;-49
2021/12/09 11:22:37;;;;;;;8.38;3.90;;;6.60;99.90;;;;;;5055267;28;20020;-49
2021/12/09 11:25:05;;;;;;;17.10;4.38;;;6.60;99.90;;;;;;5053909;28;20049;-47
2021/12/09 11:27:31;;;;;;;10.90;3.95;;;6.50;99.90;;;;;;5055140;28;20053;-48
2021/12/09 11:30:13;;;;;;;6.53;3.53;;;6.60;99.90;;;;;;5055289;28;20068;-49
2021/12/09 11:32:55;;;;;;;11.73;3.83;;;6.70;99.90;;;;;;5054984;28;20021;-49
2021/12/09 11:35:28;;;;;;;8.48;3.08;;;6.70;99.90;;;;;;5053641;28;20040;-47
2021/12/09 11:38:06;;;;;;;10.40;4.20;;;6.80;99.90;;;;;;5055056;28;20074;-48
2021/12/09 11:43:06;;;;;;;13.80;3.95;;;6.90;99.90;;;;;;5054663;28;20020;-51
2021/12/09 11:45:34;;;;;;;11.32;3.55;;;6.90;99.90;;;;;;5053473;28;20484;-49
2021/12/09 11:48:02;;;;;;;8.70;3.55;;;7.00;99.90;;;;;;5054617;28;20506;-49
2021/12/09 11:50:33;;;;;;;12.57;3.50;;;7.00;99.90;;;;;;5053313;28;20021;-50
2021/12/09 11:53:03;;;;;;;15.20;3.40;;;7.00;99.90;;;;;;5053260;28;20021;-48
2021/12/09 11:55:35;;;;;;;7.80;2.80;;;7.10;99.90;;;;;;5053215;28;20056;-47
2021/12/09 11:58:11;;;;;;;6.05;2.90;;;7.20;99.90;;;;;;5054262;28;20040;-50
2021/12/09 12:12:36;;;;;;;18.13;7.55;;;7.30;99.90;;;;;;5054736;28;20028;-51
2021/12/09 12:15:24;;;;;;;18.25;8.80;;;7.30;99.90;;;;;;5054456;28;20023;-50
2021/12/09 12:18:29;;;;;;;8.48;4.18;;;7.20;99.90;;;;;;5052732;28;20087;-50
2021/12/09 12:21:17;;;;;;;11.15;4.00;;;7.10;99.90;;;;;;5054017;28;20021;-47
2021/12/09 12:24:03;;;;;;;14.18;4.38;;;6.90;99.90;;;;;;5053505;28;20053;-48
2021/12/09 12:38:18;;;;;;;12.88;4.38;;;7.00;99.90;;;;;;5053777;28;20017;-49
2021/12/09 12:40:58;;;;;;;9.07;3.65;;;7.00;99.90;;;;;;5053560;28;20021;-48
2021/12/09 12:43:32;;;;;;;12.50;3.63;;;7.00;99.90;;;;;;5053177;28;20024;-52
2021/12/09 12:46:14;;;;;;;9.18;3.63;;;7.00;99.90;;;;;;5052356;28;20108;-49
2021/12/09 12:49:05;;;;;;;14.93;4.13;;;7.00;99.90;;;;;;5052363;28;20031;-48
2021/12/09 12:51:37;;;;;;;19.38;3.80;;;7.00;99.90;;;;;;5053382;28;20021;-47
2021/12/09 12:54:14;;;;;;;10.98;3.45;;;6.90;99.90;;;;;;5053402;28;20029;-47
2021/12/09 12:56:42;;;;;;;11.70;3.88;;;7.00;99.90;;;;;;5052131;28;20395;-49
2021/12/09 12:59:18;;;;;;;14.38;4.03;;;7.10;99.90;;;;;;5052381;28;20021;-49
2021/12/09 13:01:51;;;;;;;15.35;4.28;;;7.00;99.90;;;;;;5052133;28;20053;-47
2021/12/09 13:04:28;;;;;;;11.77;4.45;;;7.00;99.90;;;;;;5053572;28;20013;-51
2021/12/09 13:07:00;;;;;;;13.32;5.00;;;7.20;99.90;;;;;;5052367;28;20025;-47
2021/12/09 13:12:03;;;;;;;8.65;2.97;;;7.00;99.90;;;;;;5053398;28;19905;-47
2021/12/09 13:14:33;;;;;;;11.90;3.00;;;7.10;99.90;;;;;;5051970;28;20024;-48
2021/12/09 13:17:11;;;;;;;9.77;2.80;;;7.20;99.90;;;;;;5053136;28;20017;-47
2021/12/09 13:19:52;;;;;;;13.00;2.80;;;7.20;99.90;;;;;;5051717;28;20089;-49
2021/12/09 13:22:21;;;;;;;9.20;2.42;;;7.20;99.90;;;;;;5053200;28;20032;-51
2021/12/09 13:47:12;;;;;;;12.07;5.93;;;7.40;99.90;;;;;;5053253;28;20083;-48
2021/12/09 13:49:48;;;;;;;12.60;5.07;;;7.40;99.90;;;;;;5052843;28;20061;-51